createdAt,value
2019-05-07T00:02:02.746Z,85.72
2019-05-07T00:05:06.796Z,85.82
2019-05-07T00:08:12.176Z,85.61
2019-05-07T00:11:16.911Z,85.11
2019-05-07T00:14:22.961Z,85.76
2019-05-07T00:17:26.463Z,86.07
2019-05-07T00:20:32.549Z,86.07
2019-05-07T00:23:35.846Z,86.17
2019-05-07T00:26:39.772Z,86.20
2019-05-07T00:29:43.612Z,86.18
2019-05-07T00:32:47.397Z,86.53
2019-05-07T00:35:58.346Z,86.59
2019-05-07T00:39:13.864Z,86.63
2019-05-07T00:42:23.407Z,86.46
2019-05-07T00:45:37.800Z,86.14
2019-05-07T00:48:42.286Z,86.40
2019-05-07T00:51:46.238Z,86.24
2019-05-07T00:54:50.041Z,86.20
2019-05-07T00:57:53.992Z,86.36
2019-05-07T01:00:57.793Z,86.57
2019-05-07T01:04:02.722Z,86.58
2019-05-07T01:07:06.763Z,86.42
2019-05-07T01:10:12.754Z,86.40
2019-05-07T01:13:16.410Z,85.61
2019-05-07T01:16:22.221Z,84.68
2019-05-07T01:19:25.979Z,83.27
2019-05-07T01:22:29.846Z,83.90
2019-05-07T01:25:33.657Z,84.36
2019-05-07T01:28:55.172Z,83.59
2019-05-07T01:32:05.164Z,83.69
2019-05-07T01:35:32.701Z,82.76
2019-05-07T01:38:36.755Z,82.35
2019-05-07T01:41:42.004Z,82.37
2019-05-07T01:44:46.014Z,82.26
2019-05-07T01:47:49.824Z,81.89
2019-05-07T01:50:53.863Z,81.89
2019-05-07T01:53:57.671Z,82.50
2019-05-07T01:57:02.812Z,81.46
2019-05-07T02:00:07.635Z,82.04
2019-05-07T02:03:27.396Z,81.39
2019-05-07T02:06:36.511Z,81.10
2019-05-07T02:09:47.557Z,80.91
2019-05-07T02:12:52.634Z,80.73
2019-05-07T02:16:00.763Z,80.81
2019-05-07T02:19:02.291Z,80.83
2019-05-07T02:22:06.098Z,81.24
2019-05-07T02:25:12.463Z,81.42
2019-05-07T02:28:15.774Z,81.92
2019-05-07T02:31:19.762Z,82.24
2019-05-07T02:34:23.647Z,82.48
2019-05-07T02:37:48.248Z,82.71
2019-05-07T02:40:46.713Z,82.10
2019-05-07T02:43:53.492Z,82.29
2019-05-07T02:47:04.035Z,82.65
2019-05-07T02:50:15.004Z,82.18
2019-05-07T02:53:27.799Z,83.09
2019-05-07T02:56:33.322Z,84.00
2019-05-07T02:59:37.178Z,83.38
2019-05-07T03:02:43.645Z,83.03
2019-05-07T03:05:46.687Z,82.55
2019-05-07T03:08:53.355Z,82.24
2019-05-07T03:11:56.218Z,83.09
2019-05-07T03:15:00.127Z,83.40
2019-05-07T03:18:04.176Z,83.26
2019-05-07T03:21:27.929Z,83.55
2019-05-07T03:24:43.183Z,83.77
2019-05-07T03:27:45.943Z,82.47
2019-05-07T03:30:58.876Z,81.90
2019-05-07T03:34:08.932Z,80.41
2019-05-07T03:37:14.051Z,79.77
2019-05-07T03:40:18.044Z,80.08
2019-05-07T03:43:22.835Z,80.73
2019-05-07T03:46:26.832Z,81.86
2019-05-07T03:49:34.190Z,83.17
2019-05-07T03:52:38.531Z,83.00
2019-05-07T03:55:44.691Z,83.39
2019-05-07T03:58:48.870Z,84.41
2019-05-07T04:01:53.835Z,84.39
2019-05-07T04:04:57.767Z,84.45
2019-05-07T04:08:03.351Z,84.07
2019-05-07T04:11:07.525Z,84.02
2019-05-07T04:14:13.626Z,84.66
2019-05-07T04:17:22.235Z,84.68
2019-05-07T04:20:23.939Z,84.15
2019-05-07T04:23:28.165Z,84.24
2019-05-07T04:26:38.781Z,84.63
2019-05-07T04:29:43.071Z,84.83
2019-05-07T04:32:52.980Z,84.76
2019-05-07T04:36:05.774Z,84.69
2019-05-07T04:39:09.705Z,85.33
2019-05-07T04:42:13.529Z,85.31
2019-05-07T04:45:17.628Z,85.18
2019-05-07T04:48:23.287Z,85.24
2019-05-07T04:51:36.978Z,85.10
2019-05-07T04:54:43.520Z,85.26
2019-05-07T04:57:46.547Z,84.99
2019-05-07T05:00:50.396Z,84.59
2019-05-07T05:03:54.429Z,83.70
2019-05-07T05:06:58.193Z,84.08
2019-05-07T05:10:02.829Z,84.32
2019-05-07T05:13:06.864Z,84.29
2019-05-07T05:16:27.106Z,84.41
2019-05-07T05:19:32.287Z,83.97
2019-05-07T05:22:43.313Z,84.07
2019-05-07T05:25:47.268Z,83.37
2019-05-07T05:28:52.530Z,83.84
2019-05-07T05:31:56.552Z,84.41
2019-05-07T05:35:03.303Z,84.60
2019-05-07T05:38:07.545Z,84.11
2019-05-07T05:41:12.265Z,83.60
2019-05-07T05:44:32.026Z,82.44
2019-05-07T05:47:36.146Z,81.49
2019-05-07T05:51:05.212Z,81.61
2019-05-07T05:54:37.165Z,80.66
2019-05-07T05:57:58.083Z,80.66
2019-05-07T06:01:32.001Z,80.48
2019-05-07T06:05:02.221Z,80.90
2019-05-07T06:08:25.500Z,80.40
2019-05-07T06:11:36.366Z,80.81
2019-05-07T06:14:50.084Z,79.64
2019-05-07T06:18:17.936Z,79.28
2019-05-07T06:21:33.894Z,78.52
2019-05-07T06:24:43.301Z,79.03
2019-05-07T06:27:47.275Z,79.28
2019-05-07T06:30:52.750Z,80.07
2019-05-07T06:33:56.887Z,80.20
2019-05-07T06:37:02.336Z,78.67
2019-05-07T06:40:23.126Z,77.31
2019-05-07T06:43:32.370Z,77.69
2019-05-07T06:46:38.636Z,77.83
2019-05-07T06:49:42.800Z,72.74
2019-05-07T06:52:46.918Z,74.24
2019-05-07T06:55:52.109Z,74.60
2019-05-07T06:59:12.819Z,72.27
2019-05-07T07:02:39.113Z,72.41
2019-05-07T07:06:12.165Z,72.31
2019-05-07T07:09:25.244Z,68.73
2019-05-07T07:12:30.168Z,74.50
2019-05-07T07:15:34.051Z,76.53
2019-05-07T07:18:50.400Z,79.59
2019-05-07T07:21:43.575Z,80.07
2019-05-07T07:24:47.412Z,79.43
2019-05-07T07:27:52.103Z,81.62
2019-05-07T07:31:15.209Z,80.32
2019-05-07T07:34:19.192Z,79.03
2019-05-07T07:37:36.384Z,79.42
2019-05-07T07:40:44.579Z,77.33
2019-05-07T07:43:48.472Z,76.37
2019-05-07T07:46:53.125Z,76.92
2019-05-07T07:49:57.185Z,74.55
2019-05-07T07:53:02.484Z,75.12
2019-05-07T07:56:24.530Z,69.11
2019-05-07T07:59:41.983Z,72.11
2019-05-07T08:02:48.764Z,65.95
2019-05-07T08:05:52.573Z,65.16
2019-05-07T08:08:56.488Z,65.14
2019-05-07T08:12:02.653Z,64.88
2019-05-07T08:15:16.865Z,63.75
2019-05-07T08:18:12.880Z,62.63
2019-05-07T08:21:16.872Z,61.85
2019-05-07T08:24:22.539Z,61.29
2019-05-07T08:27:26.602Z,61.45
2019-05-07T08:30:32.695Z,61.84
2019-05-07T08:33:42.824Z,61.03
2019-05-07T08:36:47.147Z,61.91
2019-05-07T08:39:52.045Z,59.82
2019-05-07T08:42:56.908Z,59.38
2019-05-07T08:46:35.161Z,60.26
2019-05-07T08:49:43.192Z,59.79
2019-05-07T08:52:46.353Z,60.76
2019-05-07T08:55:50.167Z,58.37
2019-05-07T08:58:54.141Z,57.72
2019-05-07T09:01:58.060Z,61.49
2019-05-07T09:05:02.969Z,58.52
2019-05-07T09:08:07.183Z,60.27
2019-05-07T09:11:13.253Z,58.23
2019-05-07T09:14:16.776Z,59.02
2019-05-07T09:17:22.767Z,59.33
2019-05-07T09:20:26.142Z,58.76
2019-05-07T09:23:31.878Z,58.80
2019-05-07T09:26:58.613Z,59.60
2019-05-07T09:30:24.626Z,56.85
2019-05-07T09:33:44.395Z,56.90
2019-05-07T09:36:52.695Z,58.05
2019-05-07T09:39:57.094Z,57.47
2019-05-07T09:43:02.518Z,57.01
2019-05-07T09:46:06.438Z,57.59
2019-05-07T09:49:12.019Z,57.48
2019-05-07T09:52:16.157Z,55.11
2019-05-07T09:55:20.146Z,55.11
2019-05-07T09:58:35.776Z,55.17
2019-05-07T10:01:31.856Z,55.40
2019-05-07T10:04:35.627Z,56.49
2019-05-07T10:07:39.605Z,55.91
2019-05-07T10:10:45.667Z,55.31
2019-05-07T10:13:55.313Z,56.42
2019-05-07T10:17:09.284Z,54.95
2019-05-07T10:20:21.779Z,57.38
2019-05-07T10:23:23.101Z,57.43
2019-05-07T10:26:27.450Z,58.89
2019-05-07T10:29:32.257Z,59.38
2019-05-07T10:32:36.306Z,58.90
2019-05-07T10:35:40.999Z,60.21
2019-05-07T10:38:44.990Z,63.51
2019-05-07T10:41:50.436Z,64.59
2019-05-07T10:45:05.684Z,63.32
2019-05-07T10:48:16.793Z,62.27
2019-05-07T10:51:21.796Z,62.97
2019-05-07T10:54:25.790Z,63.59
2019-05-07T10:57:29.603Z,62.47
2019-05-07T11:00:33.667Z,62.35
2019-05-07T11:03:37.681Z,62.07
2019-05-07T11:06:41.840Z,62.06
2019-05-07T11:09:45.787Z,65.58
2019-05-07T11:12:51.586Z,64.91
2019-05-07T11:16:02.462Z,67.98
2019-05-07T11:19:06.449Z,70.90
2019-05-07T11:22:11.645Z,74.34
2019-05-07T11:25:15.785Z,75.75
2019-05-07T11:28:19.775Z,77.16
2019-05-07T11:31:23.677Z,77.04
2019-05-07T11:34:27.518Z,75.46
2019-05-07T11:37:31.373Z,73.57
2019-05-07T11:40:35.259Z,70.53
2019-05-07T11:44:01.638Z,65.47
2019-05-07T11:47:26.661Z,66.18
2019-05-07T11:51:00.489Z,61.98
2019-05-07T11:54:12.622Z,61.04
2019-05-07T11:57:16.709Z,57.84
2019-05-07T12:00:29.754Z,57.68
2019-05-07T12:03:33.725Z,58.58
2019-05-07T12:06:37.634Z,61.80
2019-05-07T12:09:41.495Z,57.67
2019-05-07T12:12:48.355Z,56.19
2019-05-07T12:15:52.404Z,55.60
2019-05-07T12:18:56.282Z,51.09
2019-05-07T12:22:00.111Z,49.68
2019-05-07T12:25:04.034Z,49.04
2019-05-07T12:28:08.024Z,54.92
2019-05-07T12:31:30.875Z,52.48
2019-05-07T12:34:53.857Z,54.74
2019-05-07T12:37:57.765Z,47.86
2019-05-07T12:41:03.219Z,45.61
2019-05-07T12:44:07.986Z,50.48
2019-05-07T12:47:12.176Z,48.13
2019-05-07T12:50:16.254Z,49.71
2019-05-07T12:53:42.415Z,47.61
2019-05-07T12:56:46.279Z,47.51
2019-05-07T12:59:50.125Z,47.99
2019-05-07T13:03:12.769Z,47.33
2019-05-07T13:06:16.774Z,45.03
2019-05-07T13:09:39.556Z,47.44
2019-05-07T13:12:43.409Z,46.16
2019-05-07T13:15:47.210Z,45.82
2019-05-07T13:18:52.624Z,46.99
2019-05-07T13:21:56.654Z,46.37
2019-05-07T13:25:02.143Z,49.76
2019-05-07T13:28:06.358Z,45.24
2019-05-07T13:31:12.451Z,46.19
2019-05-07T13:34:16.154Z,46.07
2019-05-07T13:37:24.108Z,48.09
2019-05-07T13:40:34.417Z,48.25
2019-05-07T13:43:57.861Z,50.11
2019-05-07T13:47:24.000Z,49.59
2019-05-07T13:50:27.927Z,51.37
2019-05-07T13:53:32.340Z,50.27
2019-05-07T13:56:36.424Z,50.38
2019-05-07T13:59:42.310Z,48.58
2019-05-07T14:02:45.941Z,50.38
2019-05-07T14:05:51.623Z,48.49
2019-05-07T14:08:55.645Z,49.54
2019-05-07T14:12:01.867Z,51.25
2019-05-07T14:15:05.548Z,51.16
2019-05-07T14:18:11.493Z,53.66
2019-05-07T14:21:15.103Z,50.59
2019-05-07T14:24:19.061Z,49.15
2019-05-07T14:27:23.131Z,47.55
2019-05-07T14:30:27.147Z,48.41
2019-05-07T14:33:55.940Z,51.34
2019-05-07T14:37:18.951Z,49.18
2019-05-07T14:40:25.145Z,50.22
2019-05-07T14:43:37.949Z,51.32
2019-05-07T14:46:50.390Z,49.06
2019-05-07T14:49:48.255Z,48.53
2019-05-07T14:52:55.069Z,49.95
2019-05-07T14:55:57.900Z,47.60
2019-05-07T14:59:02.649Z,46.25
2019-05-07T15:02:06.885Z,45.21
2019-05-07T15:05:12.031Z,46.35
2019-05-07T15:08:16.254Z,45.30
2019-05-07T15:11:20.300Z,47.77
2019-05-07T15:14:24.305Z,48.15
2019-05-07T15:17:35.022Z,46.99
2019-05-07T15:20:38.975Z,45.70
2019-05-07T15:23:43.222Z,42.68
2019-05-07T15:26:48.679Z,45.47
2019-05-07T15:29:52.753Z,44.16
2019-05-07T15:32:56.733Z,46.68
2019-05-07T15:36:02.663Z,43.32
2019-05-07T15:39:06.624Z,44.99
2019-05-07T15:42:10.542Z,46.18
2019-05-07T15:45:14.805Z,44.15
2019-05-07T15:48:18.743Z,46.38
2019-05-07T15:51:22.674Z,46.29
2019-05-07T15:54:26.549Z,47.78
2019-05-07T15:57:32.863Z,47.32
2019-05-07T16:00:37.856Z,48.01
2019-05-07T16:03:43.348Z,49.28
2019-05-07T16:06:47.244Z,48.95
2019-05-07T16:09:52.581Z,48.04
2019-05-07T16:12:56.587Z,49.31
2019-05-07T16:16:02.239Z,50.21
2019-05-07T16:19:13.941Z,47.65
2019-05-07T16:22:24.801Z,49.44
2019-05-07T16:25:28.776Z,49.12
2019-05-07T16:28:32.589Z,49.87
2019-05-07T16:31:36.482Z,49.88
2019-05-07T16:34:40.282Z,50.45
2019-05-07T16:37:44.191Z,48.57
2019-05-07T16:40:48.094Z,48.33
2019-05-07T16:43:52.460Z,47.52
2019-05-07T16:46:56.283Z,47.61
2019-05-07T16:50:03.996Z,49.45
2019-05-07T16:53:05.648Z,49.07
2019-05-07T16:56:09.468Z,49.18
2019-05-07T16:59:13.345Z,50.24
2019-05-07T17:02:22.169Z,48.54
2019-05-07T17:05:25.992Z,52.42
2019-05-07T17:08:34.718Z,51.94
2019-05-07T17:11:38.522Z,52.04
2019-05-07T17:14:42.699Z,52.76
2019-05-07T17:17:46.751Z,52.50
2019-05-07T17:20:52.272Z,51.15
2019-05-07T17:23:56.234Z,53.31
2019-05-07T17:27:02.206Z,55.30
2019-05-07T17:30:06.235Z,54.68
2019-05-07T17:33:12.611Z,55.43
2019-05-07T17:36:15.791Z,55.07
2019-05-07T17:39:19.621Z,53.60
2019-05-07T17:42:23.423Z,51.03
2019-05-07T17:45:27.232Z,53.67
2019-05-07T17:48:32.639Z,52.91
2019-05-07T17:51:43.462Z,53.56
2019-05-07T17:54:47.336Z,54.74
2019-05-07T17:57:52.328Z,54.21
2019-05-07T18:00:58.609Z,54.95
2019-05-07T18:04:03.058Z,56.83
2019-05-07T18:07:06.967Z,57.13
2019-05-07T18:10:12.584Z,57.00
2019-05-07T18:13:16.508Z,55.59
2019-05-07T18:16:32.663Z,55.77
2019-05-07T18:19:36.655Z,54.03
2019-05-07T18:22:40.554Z,55.43
2019-05-07T18:25:44.497Z,55.41
2019-05-07T18:28:48.302Z,56.70
2019-05-07T18:31:55.810Z,57.12
2019-05-07T18:34:59.763Z,57.64
2019-05-07T18:38:03.598Z,57.60
2019-05-07T18:41:07.419Z,57.77
2019-05-07T18:44:13.504Z,58.28
2019-05-07T18:47:16.919Z,59.18
2019-05-07T18:50:22.514Z,59.54
2019-05-07T18:53:26.270Z,60.19
2019-05-07T18:56:30.092Z,60.35
2019-05-07T18:59:35.341Z,60.78
2019-05-07T19:02:39.247Z,61.19
2019-05-07T19:05:43.118Z,61.85
2019-05-07T19:08:47.988Z,62.40
2019-05-07T19:11:52.405Z,62.81
2019-05-07T19:14:56.315Z,63.75
2019-05-07T19:18:02.496Z,64.26
2019-05-07T19:21:06.888Z,64.66
2019-05-07T19:24:10.944Z,64.96
2019-05-07T19:27:14.755Z,65.64
2019-05-07T19:30:19.061Z,66.08
2019-05-07T19:33:26.665Z,65.71
2019-05-07T19:36:28.610Z,65.49
2019-05-07T19:39:32.655Z,66.05
2019-05-07T19:42:36.416Z,66.74
2019-05-07T19:45:41.861Z,66.74
2019-05-07T19:48:45.916Z,66.88
2019-05-07T19:51:49.718Z,67.43
2019-05-07T19:55:01.260Z,67.75
2019-05-07T19:58:02.875Z,67.70
2019-05-07T20:01:08.036Z,67.83
2019-05-07T20:04:13.315Z,68.05
2019-05-07T20:07:17.343Z,68.53
2019-05-07T20:10:43.557Z,68.79
2019-05-07T20:13:47.473Z,68.53
2019-05-07T20:16:53.188Z,68.42
2019-05-07T20:19:56.947Z,68.86
2019-05-07T20:23:02.540Z,68.93
2019-05-07T20:26:06.655Z,69.28
2019-05-07T20:29:12.355Z,68.92
2019-05-07T20:32:16.306Z,69.32
2019-05-07T20:35:20.233Z,69.48
2019-05-07T20:38:24.042Z,70.19
2019-05-07T20:41:27.951Z,70.71
2019-05-07T20:44:32.455Z,71.21
2019-05-07T20:47:36.390Z,71.98
2019-05-07T20:50:42.305Z,73.48
2019-05-07T20:54:12.685Z,73.07
2019-05-07T20:57:25.740Z,73.68
2019-05-07T21:00:36.328Z,76.69
2019-05-07T21:03:40.216Z,75.43
2019-05-07T21:06:44.050Z,75.37
2019-05-07T21:09:47.883Z,76.77
2019-05-07T21:12:51.809Z,76.15
2019-05-07T21:15:55.702Z,77.51
2019-05-07T21:19:01.783Z,78.23
2019-05-07T21:22:05.228Z,78.25
2019-05-07T21:25:09.216Z,80.08
2019-05-07T21:28:13.018Z,79.19
2019-05-07T21:31:16.810Z,80.41
2019-05-07T21:34:22.833Z,82.37
2019-05-07T21:37:26.184Z,82.69
2019-05-07T21:40:31.946Z,84.60
2019-05-07T21:43:35.581Z,84.49
2019-05-07T21:46:39.421Z,84.35
2019-05-07T21:49:43.292Z,83.60
2019-05-07T21:52:54.084Z,83.52
2019-05-07T21:56:08.108Z,85.24
2019-05-07T21:59:15.137Z,85.71
2019-05-07T22:02:22.894Z,86.91
2019-05-07T22:05:26.779Z,88.06
2019-05-07T22:08:32.609Z,87.74
2019-05-07T22:11:36.418Z,87.90
2019-05-07T22:14:40.248Z,88.19
2019-05-07T22:17:44.442Z,88.33
2019-05-07T22:20:48.394Z,88.81
2019-05-07T22:23:52.336Z,88.63
2019-05-07T22:26:56.422Z,87.66
2019-05-07T22:30:02.293Z,88.57
2019-05-07T22:33:12.883Z,87.23
2019-05-07T22:36:16.778Z,86.61
2019-05-07T22:39:22.093Z,87.21
2019-05-07T22:42:26.019Z,87.90
2019-05-07T22:45:32.108Z,88.87
2019-05-07T22:48:35.504Z,89.48
2019-05-07T22:51:39.297Z,88.38
2019-05-07T22:54:43.128Z,88.22
2019-05-07T22:58:01.554Z,89.49
2019-05-07T23:01:07.601Z,89.88
2019-05-07T23:04:12.219Z,89.32
2019-05-07T23:07:16.118Z,89.63
2019-05-07T23:10:19.950Z,90.29
2019-05-07T23:13:23.776Z,90.74
2019-05-07T23:16:27.600Z,91.60
2019-05-07T23:19:32.802Z,92.41
2019-05-07T23:22:36.675Z,91.71
2019-05-07T23:25:42.898Z,91.96
2019-05-07T23:28:46.004Z,92.46
2019-05-07T23:31:49.868Z,92.51
2019-05-07T23:34:53.669Z,92.32
2019-05-07T23:37:57.573Z,92.49
2019-05-07T23:41:23.543Z,93.08
2019-05-07T23:44:27.543Z,93.23
2019-05-07T23:47:31.861Z,93.54
2019-05-07T23:50:35.717Z,93.90
2019-05-07T23:53:39.529Z,94.19
2019-05-07T23:56:43.356Z,94.34
2019-05-07T23:59:47.154Z,93.97
